Acme, Pennsylvania
Current Conditions -  °F | °C
As of 3:55 AM on Saturday 25 Oct 2014 (Local Time) from KLBE Reporting Station
Overcast Overcast  
Wind Chill: 44°   Ceiling: 4800
Heat Index: 48°   Visibility: 10mi
Dew Point: 43°   Wind: 9mph
Humidity: 82%   Direction: 210°SSW
Pressure: 29.99"   Gusts: NA
Location:  40.13°N, 79.43°W
Report Text: KLBE 250755Z AUTO 21008KT 10SM OVC048 09/06 A2999 RMK A02 P000
Loading
Personal Weather Stations






























Interactive Weather Map New forecast layout! Learn more

10-Day Weather Forecast

Advertisements
Track Severe Weather on mobile